Time;durP1;ratioP1;P1;durP2;ratioP2;P2;SDS_P1;SDS_P2;PMS_P1;PMS_P2;Temp;Humidity;BMP_temperature;BMP_pressure;BME280_temperature;BME280_humidity;BME280_pressure;Samples;Min_cycle;Max_cycle;Signal;HPM_P1;HPM_P2
2022/10/10 05:06:44;;;;;;;;;11.00;9.33;;;;;;;;5934054;39;10000336;-64
2022/10/10 08:31:25;;;;;;;;;13.00;11.67;;;;;;;;5763594;39;10001091;-64
2022/10/10 08:37:28;;;;;;;;;8.67;8.67;;;;;;;;6486601;39;9036;-62
2022/10/10 08:43:51;;;;;;;;;10.67;10.33;;;;;;;;6487523;39;9950;-64
2022/10/10 08:50:00;;;;;;;;;37.00;35.33;;;;;;;;6486222;31;8929;-62
2022/10/10 08:56:06;;;;;;;;;107.00;97.25;;;;;;;;6487779;31;8933;-62
2022/10/10 09:02:39;;;;;;;;;41.67;36.67;;;;;;;;6486078;47;8961;-62
2022/10/10 09:09:06;;;;;;;;;67.00;54.00;;;;;;;;6486701;31;8987;-62
2022/10/10 09:15:30;;;;;;;;;43.00;36.00;;;;;;;;6486431;31;8931;-63
2022/10/10 09:21:36;;;;;;;;;11.00;11.00;;;;;;;;6487348;39;8915;-63
2022/10/10 09:27:53;;;;;;;;;20.00;16.67;;;;;;;;6488112;31;9426;-60
2022/10/10 09:34:01;;;;;;;;;29.33;23.33;;;;;;;;6484693;31;8944;-63
2022/10/10 09:40:26;;;;;;;;;34.33;32.00;;;;;;;;6485905;31;9699;-63
2022/10/10 09:46:29;;;;;;;;;41.00;36.00;;;;;;;;6484075;31;9606;-63
2022/10/10 09:52:34;;;;;;;;;36.67;36.00;;;;;;;;6485372;31;8888;-62
2022/10/10 09:58:43;;;;;;;;;81.75;68.00;;;;;;;;6484567;39;8936;-63
2022/10/10 10:04:49;;;;;;;;;9.00;7.00;;;;;;;;6487512;39;8909;-62
2022/10/10 10:10:51;;;;;;;;;38.33;32.33;;;;;;;;6486919;39;8990;-63
2022/10/10 10:17:07;;;;;;;;;55.00;44.00;;;;;;;;6487438;39;8900;-64
2022/10/10 10:23:30;;;;;;;;;29.67;28.67;;;;;;;;6486789;31;9138;-64
2022/10/10 10:29:33;;;;;;;;;137.00;124.75;;;;;;;;6485310;39;8955;-63
2022/10/10 10:35:46;;;;;;;;;61.00;48.67;;;;;;;;6485787;46;8913;-63
2022/10/10 10:42:12;;;;;;;;;20.33;19.33;;;;;;;;6486513;31;8923;-64
2022/10/10 10:48:33;;;;;;;;;28.67;26.33;;;;;;;;6486875;31;8948;-62
2022/10/10 10:54:45;;;;;;;;;62.00;47.67;;;;;;;;6487190;31;8938;-64
2022/10/10 11:00:55;;;;;;;;;48.00;39.67;;;;;;;;6486838;46;8928;-64
2022/10/10 11:07:25;;;;;;;;;13.67;13.00;;;;;;;;6486677;31;8945;-63
2022/10/10 11:13:31;;;;;;;;;10.00;10.00;;;;;;;;6488842;31;8947;-63
2022/10/10 11:19:48;;;;;;;;;19.67;18.33;;;;;;;;6489290;39;9532;-62
2022/10/10 11:26:06;;;;;;;;;11.33;11.33;;;;;;;;6489060;31;8955;-62
2022/10/10 11:32:16;;;;;;;;;47.00;39.67;;;;;;;;6490157;31;8889;-63
2022/10/10 11:38:32;;;;;;;;;48.33;39.00;;;;;;;;6488224;46;8943;-63
2022/10/10 11:44:53;;;;;;;;;81.00;66.25;;;;;;;;6487358;31;9925;-63
2022/10/10 11:51:05;;;;;;;;;6.33;5.33;;;;;;;;6487694;31;9096;-63
2022/10/10 11:58:02;;;;;;;;;35.33;31.00;;;;;;;;6488364;39;8928;-63
2022/10/10 12:04:04;;;;;;;;;24.67;21.00;;;;;;;;6485549;46;8974;-67
2022/10/10 12:10:18;;;;;;;;;15.67;13.00;;;;;;;;6486947;31;9008;-64
2022/10/10 12:16:28;;;;;;;;;10.00;10.00;;;;;;;;6485156;31;9058;-63
2022/10/10 12:22:33;;;;;;;;;7.67;7.67;;;;;;;;6488536;31;8979;-63
2022/10/10 12:29:08;;;;;;;;;12.67;11.33;;;;;;;;6489026;31;8978;-61
2022/10/10 12:35:30;;;;;;;;;11.00;9.00;;;;;;;;6485461;39;8929;-62
2022/10/10 12:41:53;;;;;;;;;10.67;9.00;;;;;;;;6488197;31;8873;-62
2022/10/10 12:47:58;;;;;;;;;9.67;9.67;;;;;;;;6486854;39;8991;-61
2022/10/10 12:54:20;;;;;;;;;7.67;7.67;;;;;;;;6488273;46;8929;-62
2022/10/10 13:00:43;;;;;;;;;12.00;12.00;;;;;;;;6487086;46;9053;-63
2022/10/10 13:06:48;;;;;;;;;12.33;11.67;;;;;;;;6487296;39;9055;-62
2022/10/10 13:13:16;;;;;;;;;9.67;9.67;;;;;;;;6488702;47;9019;-62
2022/10/10 13:19:24;;;;;;;;;11.67;10.67;;;;;;;;6485327;39;8943;-61
2022/10/10 13:25:26;;;;;;;;;10.00;9.33;;;;;;;;6486453;47;8868;-62
2022/10/10 13:31:30;;;;;;;;;9.33;9.00;;;;;;;;6483725;46;9102;-63
2022/10/10 13:37:34;;;;;;;;;12.00;10.67;;;;;;;;6487197;39;8908;-62
2022/10/10 13:43:36;;;;;;;;;9.00;9.00;;;;;;;;6487585;46;8923;-63
2022/10/10 13:49:53;;;;;;;;;12.00;9.67;;;;;;;;6485860;39;9011;-63
2022/10/10 13:56:18;;;;;;;;;9.00;9.00;;;;;;;;6486276;46;8969;-62
2022/10/10 14:02:24;;;;;;;;;10.67;10.00;;;;;;;;6490882;39;8975;-62
2022/10/10 14:08:32;;;;;;;;;10.33;10.00;;;;;;;;6490355;39;8915;-63
2022/10/10 14:14:47;;;;;;;;;7.00;7.00;;;;;;;;6490848;39;8884;-63
2022/10/10 14:20:52;;;;;;;;;11.00;10.33;;;;;;;;6490365;31;8868;-63
2022/10/10 14:26:54;;;;;;;;;19.00;13.33;;;;;;;;6490347;31;8962;-63
2022/10/10 14:32:57;;;;;;;;;14.67;11.00;;;;;;;;6488803;39;8939;-63
2022/10/10 14:39:00;;;;;;;;;11.67;11.33;;;;;;;;6490150;39;9036;-63
2022/10/10 14:45:02;;;;;;;;;10.00;10.00;;;;;;;;6489374;46;8920;-62
2022/10/10 14:51:08;;;;;;;;;9.00;9.00;;;;;;;;6490384;46;8846;-62
2022/10/10 14:57:32;;;;;;;;;13.00;9.67;;;;;;;;6488680;31;8915;-63
2022/10/10 15:03:34;;;;;;;;;13.67;12.00;;;;;;;;6488393;46;8904;-63
2022/10/10 15:09:36;;;;;;;;;11.67;11.67;;;;;;;;6491069;31;8943;-63
2022/10/10 15:15:48;;;;;;;;;16.67;15.67;;;;;;;;6488710;39;8903;-63
2022/10/10 15:21:50;;;;;;;;;14.00;12.67;;;;;;;;6489981;31;8954;-62
2022/10/10 15:27:52;;;;;;;;;13.00;12.00;;;;;;;;6488874;46;8975;-63
2022/10/10 15:33:55;;;;;;;;;17.00;17.00;;;;;;;;6490104;31;8957;-63
2022/10/10 15:39:57;;;;;;;;;14.00;13.00;;;;;;;;6489088;39;8995;-63
2022/10/10 15:46:00;;;;;;;;;12.00;11.33;;;;;;;;6488181;31;8958;-63
2022/10/10 15:52:02;;;;;;;;;15.67;14.00;;;;;;;;6490113;39;8878;-63
2022/10/10 15:58:05;;;;;;;;;17.33;16.67;;;;;;;;6488596;39;8967;-62
2022/10/10 16:04:07;;;;;;;;;15.33;13.00;;;;;;;;6488409;39;9039;-62
2022/10/10 16:10:11;;;;;;;;;18.00;18.00;;;;;;;;6489446;39;8991;-62
2022/10/10 16:16:14;;;;;;;;;16.67;14.33;;;;;;;;6489180;39;9031;-63
2022/10/10 16:22:17;;;;;;;;;23.67;22.00;;;;;;;;6489665;39;9428;-63
2022/10/10 16:28:22;;;;;;;;;26.00;21.00;;;;;;;;6489476;46;9027;-63
2022/10/10 16:34:25;;;;;;;;;23.33;19.33;;;;;;;;6489909;31;8903;-63
2022/10/10 16:40:27;;;;;;;;;17.00;17.00;;;;;;;;6489013;46;8919;-63
2022/10/10 16:46:31;;;;;;;;;19.00;19.00;;;;;;;;6489535;46;8881;-63
2022/10/10 16:52:36;;;;;;;;;23.33;21.00;;;;;;;;6490532;39;9687;-63
2022/10/10 16:58:39;;;;;;;;;18.00;14.00;;;;;;;;6489598;39;8885;-63
2022/10/10 17:04:41;;;;;;;;;14.33;14.33;;;;;;;;6488915;46;8855;-62
2022/10/10 17:10:43;;;;;;;;;18.33;15.33;;;;;;;;6488904;47;8968;-63
2022/10/10 17:16:45;;;;;;;;;17.00;15.67;;;;;;;;6488385;39;8930;-63
2022/10/10 17:23:07;;;;;;;;;22.00;19.67;;;;;;;;6489605;31;8881;-63
2022/10/10 17:29:09;;;;;;;;;20.00;19.67;;;;;;;;6487945;47;8915;-62
2022/10/10 17:35:13;;;;;;;;;24.33;21.67;;;;;;;;6489584;31;8935;-62
2022/10/10 17:41:16;;;;;;;;;18.00;18.00;;;;;;;;6488635;39;8915;-63
2022/10/10 17:47:18;;;;;;;;;20.33;20.33;;;;;;;;6489426;39;8885;-63
2022/10/10 17:53:22;;;;;;;;;21.00;18.33;;;;;;;;6488923;47;8895;-64
2022/10/10 17:59:24;;;;;;;;;18.00;18.00;;;;;;;;6488205;31;8923;-62
2022/10/10 18:05:27;;;;;;;;;20.00;20.00;;;;;;;;6488540;39;8879;-63
2022/10/10 18:11:30;;;;;;;;;21.00;18.33;;;;;;;;6488688;39;8935;-63
2022/10/10 18:17:32;;;;;;;;;21.00;21.00;;;;;;;;6488368;46;8851;-62
2022/10/10 18:23:36;;;;;;;;;17.00;17.00;;;;;;;;6490747;31;9038;-63
2022/10/10 18:29:38;;;;;;;;;24.33;21.33;;;;;;;;6490899;39;8986;-63
2022/10/10 18:35:40;;;;;;;;;19.00;19.00;;;;;;;;6490259;46;8872;-62
2022/10/10 18:41:44;;;;;;;;;20.67;19.00;;;;;;;;6490043;31;8927;-63
2022/10/10 18:47:47;;;;;;;;;30.67;26.00;;;;;;;;6490375;39;8889;-63
2022/10/10 18:53:53;;;;;;;;;22.00;21.75;;;;;;;;6490747;39;8966;-63
2022/10/10 18:59:56;;;;;;;;;23.67;21.67;;;;;;;;6489931;39;8880;-63
2022/10/10 19:06:01;;;;;;;;;19.50;19.50;;;;;;;;6490923;39;8871;-63
2022/10/10 19:12:03;;;;;;;;;22.33;21.00;;;;;;;;6489780;46;8897;-62
2022/10/10 19:18:07;;;;;;;;;28.50;26.00;;;;;;;;6490083;39;8875;-63
2022/10/10 19:24:21;;;;;;;;;24.25;24.25;;;;;;;;6491208;31;8888;-61
2022/10/10 19:30:23;;;;;;;;;28.00;26.75;;;;;;;;6489937;39;8959;-62
2022/10/10 19:36:28;;;;;;;;;28.50;25.25;;;;;;;;6490272;31;8854;-63
2022/10/10 19:42:30;;;;;;;;;19.00;19.00;;;;;;;;6490000;39;9127;-61
2022/10/10 19:48:33;;;;;;;;;30.00;28.00;;;;;;;;6519060;36;8931;-62
2022/10/10 19:54:35;;;;;;;;;35.25;32.00;;;;;;;;6489826;46;8892;-63
2022/10/10 20:00:37;;;;;;;;;31.25;28.50;;;;;;;;6488892;39;8955;-63
2022/10/10 20:06:42;;;;;;;;;28.75;25.25;;;;;;;;6489354;46;8858;-62
2022/10/10 20:12:45;;;;;;;;;21.67;21.67;;;;;;;;6489123;46;8924;-64
2022/10/10 20:18:47;;;;;;;;;24.00;21.50;;;;;;;;6489778;39;8928;-62
2022/10/10 20:24:49;;;;;;;;;21.25;21.00;;;;;;;;6489408;39;9345;-63
2022/10/10 20:30:51;;;;;;;;;21.00;20.25;;;;;;;;6488582;39;9040;-62
2022/10/10 20:36:53;;;;;;;;;22.33;21.00;;;;;;;;6489576;39;8860;-62
2022/10/10 20:42:55;;;;;;;;;26.33;23.00;;;;;;;;6488610;46;9033;-63
2022/10/10 20:48:59;;;;;;;;;19.67;16.33;;;;;;;;6489949;39;8948;-63
2022/10/10 20:55:01;;;;;;;;;17.33;17.00;;;;;;;;6489750;39;8878;-63
2022/10/10 21:01:06;;;;;;;;;21.33;18.33;;;;;;;;6489157;39;9607;-62
2022/10/10 21:07:08;;;;;;;;;19.33;16.33;;;;;;;;6489941;47;8929;-63
2022/10/10 21:13:10;;;;;;;;;20.33;19.33;;;;;;;;6488899;39;8861;-62
2022/10/10 21:19:13;;;;;;;;;16.33;16.33;;;;;;;;6489039;39;8874;-61
2022/10/10 21:25:15;;;;;;;;;16.67;16.67;;;;;;;;6489239;47;8899;-62
2022/10/10 21:31:25;;;;;;;;;22.00;17.00;;;;;;;;6488969;39;8965;-62
2022/10/10 21:37:28;;;;;;;;;14.33;13.00;;;;;;;;6489210;31;8907;-63
2022/10/10 21:43:30;;;;;;;;;18.33;12.67;;;;;;;;6488297;47;8850;-63
2022/10/10 21:49:32;;;;;;;;;12.00;10.67;;;;;;;;6487653;39;9000;-62
2022/10/10 21:55:37;;;;;;;;;12.00;12.00;;;;;;;;6490663;31;8857;-63
2022/10/10 22:01:39;;;;;;;;;15.67;14.00;;;;;;;;6491141;31;8909;-62
2022/10/10 22:07:43;;;;;;;;;11.00;9.33;;;;;;;;6491094;39;8858;-62
2022/10/10 22:13:46;;;;;;;;;14.67;14.67;;;;;;;;6490717;31;8880;-64
2022/10/10 22:19:50;;;;;;;;;17.33;13.00;;;;;;;;6491335;31;8912;-63
2022/10/10 22:25:52;;;;;;;;;17.00;17.00;;;;;;;;6491643;31;8908;-63
2022/10/10 22:31:54;;;;;;;;;20.67;18.67;;;;;;;;6491192;39;8975;-63
2022/10/10 22:37:56;;;;;;;;;19.00;16.67;;;;;;;;6491108;31;9024;-62
2022/10/10 22:43:59;;;;;;;;;18.25;16.00;;;;;;;;6490082;46;9042;-62
2022/10/10 22:50:02;;;;;;;;;18.75;16.00;;;;;;;;6490340;46;8908;-63
2022/10/10 22:56:04;;;;;;;;;19.67;17.00;;;;;;;;6491550;39;9516;-63
2022/10/10 23:02:07;;;;;;;;;21.67;19.67;;;;;;;;6490357;39;10083;-62
2022/10/10 23:08:11;;;;;;;;;21.50;20.00;;;;;;;;6490289;31;8873;-62
2022/10/10 23:14:13;;;;;;;;;22.00;22.00;;;;;;;;6489904;46;8892;-62
2022/10/10 23:20:15;;;;;;;;;28.75;21.50;;;;;;;;6489009;39;8922;-62
2022/10/10 23:26:18;;;;;;;;;26.50;22.25;;;;;;;;6490201;31;8886;-63
2022/10/10 23:32:21;;;;;;;;;28.25;25.00;;;;;;;;6490566;31;9057;-63
2022/10/10 23:38:24;;;;;;;;;24.50;21.75;;;;;;;;6490119;39;8916;-62
2022/10/10 23:44:26;;;;;;;;;25.00;23.00;;;;;;;;6489947;31;9012;-62
2022/10/10 23:50:28;;;;;;;;;23.75;23.50;;;;;;;;6489635;39;8935;-64
2022/10/10 23:56:31;;;;;;;;;26.75;26.50;;;;;;;;6489463;39;8861;-62
